Terminal Aerodrome Forecast
Issued by NWS Mt. Holly, NJ

Home | Current Version | Previous Version | Text Only | Print | Product List | Glossary On
Versions: 1 2 3 4 5 6 7 8 9 10 11 12 13
000
FTUS41 KPHI 241749
TAFABE
TAF
KABE 241749Z 2418/2518 23007KT P6SM SCT250
     FM242000 26007KT P6SM SCT250
     FM250000 VRB03KT P6SM SCT150 BKN250
      TEMPO 2506/2510 6SM -SHRA OVC060
     FM251100 24005KT P6SM BKN070 OVC150
     FM251500 27008KT P6SM SCT150 BKN250=

USA.gov is the U.S. government's official web portal to all federal, state and local government web resources and services.